createdAt,value
2022-10-04T00:00:36.646Z,1.25
2022-10-04T00:03:10.697Z,1.30
2022-10-04T00:05:40.779Z,1.27
2022-10-04T00:08:30.970Z,1.40
2022-10-04T00:11:14.884Z,1.20
2022-10-04T00:13:49.090Z,1.35
2022-10-04T00:16:31.488Z,1.33
2022-10-04T00:19:22.726Z,1.23
2022-10-04T00:21:52.409Z,1.50
2022-10-04T00:24:33.156Z,1.13
2022-10-04T00:27:22.723Z,1.42
2022-10-04T00:30:01.745Z,1.38
2022-10-04T00:32:43.343Z,1.40
2022-10-04T00:35:24.908Z,1.40
2022-10-04T00:38:06.606Z,1.40
2022-10-04T00:40:46.510Z,1.48
2022-10-04T00:43:15.632Z,1.48
2022-10-04T00:46:18.570Z,1.40
2022-10-04T00:48:58.461Z,1.27
2022-10-04T00:51:31.995Z,1.23
2022-10-04T00:54:12.901Z,1.50
2022-10-04T00:56:52.484Z,1.38
2022-10-04T00:59:29.847Z,1.17
2022-10-04T01:02:13.647Z,1.45
2022-10-04T01:05:07.447Z,1.40
2022-10-04T01:07:39.513Z,1.17
2022-10-04T01:10:12.305Z,1.48
2022-10-04T01:12:49.577Z,1.00
2022-10-04T01:15:21.831Z,1.10
2022-10-04T01:18:09.510Z,1.33
2022-10-04T01:20:53.848Z,1.20
2022-10-04T01:23:39.199Z,1.50
2022-10-04T01:26:26.557Z,1.33
2022-10-04T01:28:54.144Z,1.50
2022-10-04T01:31:21.345Z,1.50
2022-10-04T01:33:48.591Z,1.10
2022-10-04T01:36:15.455Z,1.38
2022-10-04T01:38:42.224Z,1.50
2022-10-04T01:41:12.084Z,1.30
2022-10-04T01:43:42.978Z,1.30
2022-10-04T01:46:13.277Z,1.40
2022-10-04T01:48:44.429Z,1.30
2022-10-04T01:51:24.800Z,1.40
2022-10-04T01:54:00.266Z,1.20
2022-10-04T01:56:54.897Z,1.20
2022-10-04T01:59:26.784Z,1.13
2022-10-04T02:02:18.740Z,1.40
2022-10-04T02:04:49.720Z,1.05
2022-10-04T02:07:17.056Z,1.20
2022-10-04T02:09:47.819Z,1.20
2022-10-04T02:12:18.742Z,1.08
2022-10-04T02:14:53.341Z,1.02
2022-10-04T02:17:28.501Z,1.10
2022-10-04T02:19:57.230Z,1.30
2022-10-04T02:22:25.441Z,1.30
2022-10-04T02:24:54.893Z,1.30
2022-10-04T02:27:26.869Z,1.60
2022-10-04T02:30:00.648Z,1.30
2022-10-04T02:32:48.788Z,1.50
2022-10-04T02:35:16.446Z,1.33
2022-10-04T02:37:44.570Z,1.38
2022-10-04T02:40:16.065Z,1.30
2022-10-04T02:42:59.829Z,1.33
2022-10-04T02:45:51.008Z,1.40
2022-10-04T02:48:34.206Z,1.30
2022-10-04T02:51:14.454Z,1.33
2022-10-04T02:54:03.155Z,1.10
2022-10-04T02:59:02.224Z,1.25
2022-10-04T03:01:43.779Z,1.10
2022-10-04T03:04:15.095Z,1.20
2022-10-04T03:06:46.044Z,1.20
2022-10-04T03:09:15.050Z,1.40
2022-10-04T03:11:43.019Z,1.17
2022-10-04T03:14:14.376Z,1.30
2022-10-04T03:16:44.573Z,1.20
2022-10-04T03:19:13.529Z,1.20
2022-10-04T03:21:42.898Z,1.05
2022-10-04T03:24:20.341Z,1.27
2022-10-04T03:26:50.724Z,1.30
2022-10-04T03:29:19.296Z,1.40
2022-10-04T03:31:48.722Z,1.20
2022-10-04T03:34:22.928Z,1.23
2022-10-04T03:36:53.350Z,1.20
2022-10-04T03:39:33.416Z,1.10
2022-10-04T03:42:05.985Z,1.48
2022-10-04T03:44:32.892Z,1.10
2022-10-04T03:47:00.310Z,1.20
2022-10-04T03:49:36.964Z,1.27
2022-10-04T03:52:05.549Z,1.10
2022-10-04T03:54:33.686Z,1.10
2022-10-04T03:57:02.014Z,1.10
2022-10-04T03:59:29.286Z,1.30
2022-10-04T04:02:14.189Z,1.27
2022-10-04T04:05:11.632Z,1.20
2022-10-04T04:07:46.611Z,1.13
2022-10-04T04:10:27.295Z,1.00
2022-10-04T04:12:58.722Z,1.15
2022-10-04T04:15:31.125Z,1.05
2022-10-04T04:18:05.742Z,1.15
2022-10-04T04:20:35.348Z,1.20
2022-10-04T04:23:11.773Z,1.13
2022-10-04T04:25:40.443Z,1.17
2022-10-04T04:28:25.575Z,1.20
2022-10-04T04:31:04.498Z,1.00
2022-10-04T04:34:00.620Z,1.40
2022-10-04T04:36:32.655Z,1.13
2022-10-04T04:39:33.890Z,1.30
2022-10-04T04:42:23.737Z,1.08
2022-10-04T04:44:55.369Z,1.13
2022-10-04T04:47:29.336Z,1.40
2022-10-04T04:49:58.888Z,1.15
2022-10-04T04:52:28.926Z,1.20
2022-10-04T04:54:56.617Z,1.23
2022-10-04T04:57:23.702Z,1.10
2022-10-04T04:59:55.417Z,1.20
2022-10-04T05:02:38.168Z,1.27
2022-10-04T05:05:37.964Z,1.30
2022-10-04T05:08:19.960Z,1.25
2022-10-04T05:10:51.944Z,1.10
2022-10-04T05:13:19.981Z,1.35
2022-10-04T05:15:49.107Z,1.13
2022-10-04T05:18:33.016Z,1.10
2022-10-04T05:21:07.578Z,1.23
2022-10-04T05:23:35.174Z,1.00
2022-10-04T05:26:04.261Z,1.10
2022-10-04T05:28:32.481Z,1.15
2022-10-04T05:31:23.893Z,1.20
2022-10-04T05:33:54.588Z,1.13
2022-10-04T05:36:58.831Z,1.00
2022-10-04T05:39:39.844Z,1.30
2022-10-04T05:42:29.165Z,1.35
2022-10-04T05:47:28.870Z,1.10
2022-10-04T05:49:58.078Z,1.13
2022-10-04T05:52:36.613Z,1.27
2022-10-04T05:55:12.161Z,1.00
2022-10-04T05:57:54.759Z,1.50
2022-10-04T06:00:25.479Z,1.33
2022-10-04T06:03:24.924Z,1.13
2022-10-04T06:06:05.488Z,1.00
2022-10-04T06:09:06.085Z,1.40
2022-10-04T06:11:54.307Z,1.45
2022-10-04T06:14:29.235Z,1.23
2022-10-04T06:17:26.589Z,1.30
2022-10-04T06:20:52.644Z,1.55
2022-10-04T06:23:21.168Z,1.10
2022-10-04T06:25:54.334Z,1.20
2022-10-04T06:28:26.784Z,1.10
2022-10-04T06:31:15.008Z,1.40
2022-10-04T06:33:47.264Z,1.00
2022-10-04T06:37:01.991Z,1.23
2022-10-04T06:39:37.017Z,1.20
2022-10-04T06:42:13.576Z,1.40
2022-10-04T07:00:16.187Z,1.30
2022-10-04T07:02:49.896Z,1.20
2022-10-04T07:05:32.165Z,1.25
2022-10-04T07:08:30.592Z,1.33
2022-10-04T07:11:12.421Z,1.43
2022-10-04T07:13:42.095Z,1.55
2022-10-04T07:16:17.569Z,1.50
2022-10-04T07:18:56.061Z,1.35
2022-10-04T07:21:27.979Z,1.43
2022-10-04T07:24:01.843Z,1.25
2022-10-04T07:26:43.636Z,1.40
2022-10-04T07:29:20.926Z,1.48
2022-10-04T07:31:51.917Z,1.40
2022-10-04T07:34:26.000Z,1.30
2022-10-04T07:36:59.947Z,1.25
2022-10-04T07:39:32.433Z,1.38
2022-10-04T07:42:14.631Z,1.30
2022-10-04T07:44:45.190Z,1.42
2022-10-04T07:47:27.858Z,1.40
2022-10-04T07:49:55.236Z,1.48
2022-10-04T07:52:50.712Z,1.50
2022-10-04T07:55:33.270Z,1.40
2022-10-04T07:58:20.967Z,1.60
2022-10-04T08:00:55.425Z,1.45
2022-10-04T08:03:37.120Z,1.58
2022-10-04T08:06:19.167Z,1.70
2022-10-04T08:09:27.513Z,1.60
2022-10-04T08:12:02.053Z,1.60
2022-10-04T08:14:46.595Z,1.80
2022-10-04T08:17:21.782Z,1.40
2022-10-04T08:20:10.119Z,1.50
2022-10-04T08:23:01.882Z,1.50
2022-10-04T08:25:42.820Z,1.58
2022-10-04T08:28:46.006Z,1.77
2022-10-04T08:31:43.331Z,1.70
2022-10-04T08:34:44.915Z,1.80
2022-10-04T08:37:32.549Z,1.88
2022-10-04T08:40:12.810Z,1.73
2022-10-04T08:43:01.590Z,1.35
2022-10-04T08:45:46.674Z,1.77
2022-10-04T08:48:38.960Z,1.70
2022-10-04T08:51:20.623Z,1.83
2022-10-04T08:54:18.979Z,1.70
2022-10-04T08:57:31.524Z,1.65
2022-10-04T09:00:15.363Z,2.00
2022-10-04T09:03:08.053Z,1.67
2022-10-04T09:05:59.340Z,2.15
2022-10-04T09:08:34.928Z,1.52
2022-10-04T09:11:05.670Z,1.65
2022-10-04T09:13:59.022Z,1.42
2022-10-04T09:16:41.038Z,1.40
2022-10-04T09:19:20.632Z,1.55
2022-10-04T09:24:52.796Z,1.63
2022-10-04T09:27:49.939Z,1.63
2022-10-04T09:30:21.286Z,1.65
2022-10-04T09:33:21.413Z,1.65
2022-10-04T09:36:27.889Z,1.60
2022-10-04T09:39:29.079Z,1.95
2022-10-04T09:42:15.117Z,1.60
2022-10-04T09:44:53.317Z,1.60
2022-10-04T09:47:37.649Z,1.70
2022-10-04T09:50:37.323Z,1.50
2022-10-04T09:53:22.307Z,1.80
2022-10-04T09:56:23.115Z,1.70
2022-10-04T09:59:18.557Z,1.70
2022-10-04T10:02:29.148Z,1.63
2022-10-04T10:05:20.951Z,1.55
2022-10-04T10:07:59.387Z,1.48
2022-10-04T10:10:53.152Z,1.50
2022-10-04T10:13:45.529Z,1.42
2022-10-04T10:16:12.241Z,1.63
2022-10-04T10:18:46.798Z,1.50
2022-10-04T10:21:31.222Z,1.75
2022-10-04T10:24:22.240Z,1.40
2022-10-04T10:27:27.726Z,2.03
2022-10-04T10:29:59.417Z,1.55
2022-10-04T10:36:19.826Z,1.50
2022-10-04T10:39:01.321Z,1.77
2022-10-04T10:41:44.673Z,1.63
2022-10-04T10:44:29.636Z,1.58
2022-10-04T10:47:16.003Z,1.60
2022-10-04T10:50:00.666Z,1.70
2022-10-04T10:52:46.229Z,1.80
2022-10-04T10:55:31.062Z,1.40
2022-10-04T10:58:28.744Z,1.50
2022-10-04T11:01:17.041Z,1.60
2022-10-04T11:04:22.650Z,1.63
2022-10-04T11:07:18.464Z,1.50
2022-10-04T11:10:03.368Z,1.40
2022-10-04T11:13:26.658Z,1.65
2022-10-04T11:16:12.568Z,1.67
2022-10-04T11:19:16.806Z,1.50
2022-10-04T11:22:20.252Z,1.73
2022-10-04T11:25:17.962Z,1.83
2022-10-04T11:28:04.384Z,1.70
2022-10-04T11:31:09.935Z,1.50
2022-10-04T11:34:00.882Z,1.55
2022-10-04T11:36:54.075Z,1.40
2022-10-04T11:42:43.438Z,1.40
2022-10-04T11:45:55.987Z,1.60
2022-10-04T11:48:37.751Z,1.30
2022-10-04T11:51:10.967Z,1.33
2022-10-04T11:54:03.450Z,1.70
2022-10-04T11:56:45.837Z,1.83
2022-10-04T11:59:39.323Z,1.50
2022-10-04T12:02:33.275Z,1.40
2022-10-04T12:05:21.005Z,1.35
2022-10-04T12:08:16.755Z,1.63
2022-10-04T12:11:04.195Z,1.70
2022-10-04T12:13:46.542Z,1.50
2022-10-04T12:16:19.078Z,1.48
2022-10-04T12:18:48.179Z,1.50
2022-10-04T12:21:35.949Z,1.63
2022-10-04T12:24:11.756Z,1.70
2022-10-04T12:27:16.928Z,1.23
2022-10-04T12:30:23.824Z,1.55
2022-10-04T12:32:57.976Z,1.58
2022-10-04T12:35:47.916Z,1.50
2022-10-04T12:38:24.648Z,1.23
2022-10-04T12:41:16.077Z,1.40
2022-10-04T12:44:17.157Z,1.23
2022-10-04T12:47:21.698Z,1.30
2022-10-04T12:50:04.403Z,1.38
2022-10-04T12:52:51.185Z,1.30
2022-10-04T12:55:49.017Z,1.55
2022-10-04T12:59:00.285Z,1.20
2022-10-04T13:01:37.613Z,1.52
2022-10-04T13:04:21.788Z,1.40
2022-10-04T13:07:24.043Z,1.40
2022-10-04T13:10:26.226Z,1.40
2022-10-04T13:13:15.447Z,1.60
2022-10-04T13:19:07.210Z,1.42
2022-10-04T13:21:38.824Z,1.40
2022-10-04T13:24:13.556Z,1.88
2022-10-04T13:26:48.790Z,1.50
2022-10-04T13:29:21.658Z,1.65
2022-10-04T13:32:03.873Z,1.33
2022-10-04T13:34:44.625Z,1.58
2022-10-04T13:37:35.760Z,1.60
2022-10-04T13:40:37.395Z,1.50
2022-10-04T13:43:19.411Z,1.40
2022-10-04T13:46:04.652Z,1.33
2022-10-04T13:49:15.813Z,1.50
2022-10-04T13:52:25.251Z,1.40
2022-10-04T13:55:22.457Z,1.25
2022-10-04T13:57:56.537Z,1.30
2022-10-04T14:01:03.930Z,1.60
2022-10-04T14:04:01.027Z,1.40
2022-10-04T14:06:45.798Z,1.40
2022-10-04T14:09:15.214Z,1.33
2022-10-04T14:14:43.629Z,1.58
2022-10-04T14:17:47.329Z,1.60
2022-10-04T14:20:39.058Z,1.55
2022-10-04T14:23:14.368Z,1.52
2022-10-04T14:26:13.221Z,1.50
2022-10-04T14:29:20.998Z,1.48
2022-10-04T14:32:25.141Z,1.42
2022-10-04T14:35:10.703Z,1.65
2022-10-04T14:37:55.109Z,1.35
2022-10-04T14:40:45.476Z,1.48
2022-10-04T14:43:30.396Z,1.83
2022-10-04T14:46:16.842Z,1.20
2022-10-04T14:49:21.506Z,1.40
2022-10-04T14:52:02.277Z,1.33
2022-10-04T14:54:42.421Z,1.20
2022-10-04T14:57:59.738Z,1.70
2022-10-04T15:00:48.651Z,1.70
2022-10-04T15:03:30.510Z,1.55
2022-10-04T15:06:15.058Z,1.50
2022-10-04T15:08:59.561Z,1.60
2022-10-04T15:12:36.255Z,1.70
2022-10-04T15:15:12.131Z,1.50
2022-10-04T15:18:05.259Z,1.65
2022-10-04T15:20:57.361Z,1.40
2022-10-04T15:23:46.025Z,1.40
2022-10-04T15:26:18.254Z,1.53
2022-10-04T15:28:44.984Z,1.70
2022-10-04T15:31:20.685Z,1.48
2022-10-04T15:34:13.462Z,1.33
2022-10-04T15:37:07.770Z,1.50
2022-10-04T15:39:58.010Z,1.40
2022-10-04T15:42:27.072Z,1.67
2022-10-04T15:45:20.307Z,1.25
2022-10-04T15:48:20.880Z,1.40
2022-10-04T15:51:12.846Z,1.27
2022-10-04T15:53:51.276Z,1.20
2022-10-04T15:56:50.782Z,1.33
2022-10-04T15:59:26.453Z,1.50
2022-10-04T16:02:41.105Z,1.35
2022-10-04T16:05:23.320Z,1.45
2022-10-04T16:08:11.501Z,1.50
2022-10-04T16:11:00.458Z,1.30
2022-10-04T16:13:57.200Z,1.30
2022-10-04T16:16:29.858Z,1.42
2022-10-04T16:19:20.040Z,1.10
2022-10-04T16:22:15.781Z,1.50
2022-10-04T16:24:58.130Z,1.40
2022-10-04T16:27:44.446Z,1.45
2022-10-04T16:30:26.936Z,1.52
2022-10-04T16:32:57.086Z,1.40
2022-10-04T16:35:31.438Z,1.80
2022-10-04T16:38:13.193Z,1.40
2022-10-04T16:40:51.701Z,1.50
2022-10-04T16:43:18.586Z,1.53
2022-10-04T16:46:03.061Z,1.42
2022-10-04T16:48:29.635Z,1.35
2022-10-04T16:51:05.140Z,1.70
2022-10-04T16:53:53.258Z,1.20
2022-10-04T16:56:23.017Z,1.52
2022-10-04T16:58:52.799Z,1.30
2022-10-04T17:01:22.094Z,1.42
2022-10-04T17:04:04.023Z,1.27
2022-10-04T17:06:42.037Z,1.60
2022-10-04T17:09:37.120Z,1.30
2022-10-04T17:12:06.761Z,1.40
2022-10-04T17:14:39.410Z,1.48
2022-10-04T17:17:22.998Z,1.40
2022-10-04T17:20:05.522Z,1.73
2022-10-04T17:22:43.411Z,2.50
2022-10-04T17:25:39.790Z,5.00
2022-10-04T17:28:26.470Z,3.35
2022-10-04T17:31:06.906Z,2.72
2022-10-04T17:33:42.768Z,2.70
2022-10-04T17:36:26.202Z,3.20
2022-10-04T17:39:25.696Z,2.90
2022-10-04T17:42:01.603Z,2.45
2022-10-04T17:44:34.293Z,3.00
2022-10-04T17:47:14.900Z,2.90
2022-10-04T17:50:28.404Z,2.45
2022-10-04T17:53:18.781Z,2.40
2022-10-04T17:55:52.884Z,2.90
2022-10-04T17:58:26.812Z,2.92
2022-10-04T18:01:10.009Z,2.55
2022-10-04T18:03:42.330Z,2.97
2022-10-04T18:06:20.496Z,2.75
2022-10-04T18:09:02.238Z,2.90
2022-10-04T18:11:41.677Z,2.45
2022-10-04T18:14:30.128Z,2.58
2022-10-04T18:17:04.686Z,3.00
2022-10-04T18:19:52.213Z,2.47
2022-10-04T18:22:21.715Z,2.38
2022-10-04T18:25:09.955Z,2.85
2022-10-04T18:27:48.833Z,2.60
2022-10-04T18:30:18.920Z,2.53
2022-10-04T18:32:48.744Z,2.72
2022-10-04T18:35:27.378Z,2.47
2022-10-04T18:38:15.933Z,2.63
2022-10-04T18:40:55.170Z,3.03
2022-10-04T18:46:00.447Z,2.75
2022-10-04T18:48:38.843Z,2.40
2022-10-04T18:51:29.057Z,2.80
2022-10-04T18:53:57.009Z,2.58
2022-10-04T18:56:24.158Z,2.38
2022-10-04T18:59:42.034Z,2.25
2022-10-04T19:02:12.022Z,2.30
2022-10-04T19:04:49.658Z,2.40
2022-10-04T19:07:23.948Z,2.50
2022-10-04T19:10:21.539Z,3.03
2022-10-04T19:13:16.045Z,2.15
2022-10-04T19:16:04.246Z,2.60
2022-10-04T19:18:57.249Z,2.30
2022-10-04T19:21:32.952Z,2.42
2022-10-04T19:24:26.755Z,2.60
2022-10-04T19:27:12.431Z,2.45
2022-10-04T19:29:58.126Z,2.28
2022-10-04T19:32:47.343Z,1.98
2022-10-04T19:35:53.347Z,2.33
2022-10-04T19:38:36.113Z,2.03
2022-10-04T19:41:15.611Z,2.13
2022-10-04T19:44:02.925Z,2.70
2022-10-04T19:46:50.863Z,2.10
2022-10-04T19:49:26.835Z,2.20
2022-10-04T19:52:01.998Z,2.58
2022-10-04T19:54:35.661Z,2.20
2022-10-04T19:57:05.411Z,1.83
2022-10-04T19:59:40.630Z,2.30
2022-10-04T20:02:09.484Z,1.85
2022-10-04T20:04:38.442Z,2.45
2022-10-04T20:07:14.479Z,2.40
2022-10-04T20:09:43.177Z,2.47
2022-10-04T20:12:34.906Z,2.27
2022-10-04T20:15:27.810Z,2.40
2022-10-04T20:17:55.768Z,2.42
2022-10-04T20:20:41.430Z,2.13
2022-10-04T20:23:09.066Z,2.30
2022-10-04T20:25:49.290Z,2.42
2022-10-04T20:28:27.847Z,2.13
2022-10-04T20:30:55.686Z,2.45
2022-10-04T20:33:49.433Z,2.40
2022-10-04T20:36:21.763Z,2.15
2022-10-04T20:38:59.650Z,2.33
2022-10-04T20:41:29.226Z,2.00
2022-10-04T20:44:04.234Z,2.35
2022-10-04T20:46:38.380Z,2.30
2022-10-04T20:49:15.729Z,2.17
2022-10-04T20:51:50.090Z,2.13
2022-10-04T20:54:18.282Z,2.30
2022-10-04T20:56:49.540Z,2.20
2022-10-04T20:59:17.967Z,2.15
2022-10-04T21:02:03.235Z,2.37
2022-10-04T21:04:32.685Z,2.03
2022-10-04T21:09:28.490Z,1.92
2022-10-04T21:11:57.052Z,2.03
2022-10-04T21:14:37.342Z,2.20
2022-10-04T21:17:24.865Z,1.90
2022-10-04T21:19:51.713Z,2.20
2022-10-04T21:22:18.196Z,2.30
2022-10-04T21:24:50.862Z,2.10
2022-10-04T21:27:35.450Z,2.35
2022-10-04T21:30:05.141Z,2.15
2022-10-04T21:32:36.516Z,2.30
2022-10-04T21:35:05.624Z,1.98
2022-10-04T21:37:33.181Z,2.45
2022-10-04T21:39:59.927Z,2.20
2022-10-04T21:42:26.783Z,1.98
2022-10-04T21:44:53.626Z,2.00
2022-10-04T21:47:21.729Z,2.40
2022-10-04T21:49:49.251Z,2.00
2022-10-04T21:52:18.062Z,2.00
2022-10-04T21:54:45.857Z,2.15
2022-10-04T21:57:13.399Z,2.13
2022-10-04T21:59:40.152Z,1.85
2022-10-04T22:02:07.888Z,1.90
2022-10-04T22:04:35.021Z,2.08
2022-10-04T22:07:01.636Z,1.80
2022-10-04T22:09:29.074Z,1.90
2022-10-04T22:11:55.981Z,2.10
2022-10-04T22:14:22.745Z,1.83
2022-10-04T22:16:50.063Z,2.22
2022-10-04T22:19:16.932Z,1.58
2022-10-04T22:21:43.854Z,2.00
2022-10-04T22:24:19.097Z,1.90
2022-10-04T22:26:46.762Z,1.63
2022-10-04T22:29:15.722Z,1.90
2022-10-04T22:31:49.828Z,2.00
2022-10-04T22:34:19.378Z,2.00
2022-10-04T22:36:48.620Z,2.10
2022-10-04T22:39:18.000Z,1.98
2022-10-04T22:41:52.768Z,2.00
2022-10-04T22:44:23.341Z,2.17
2022-10-04T22:46:53.641Z,1.98
2022-10-04T22:49:23.920Z,1.95
2022-10-04T22:51:52.251Z,1.92
2022-10-04T22:54:21.743Z,1.85
2022-10-04T22:56:49.601Z,1.70
2022-10-04T22:59:19.595Z,1.92
2022-10-04T23:01:46.726Z,1.92
2022-10-04T23:04:21.024Z,2.10
2022-10-04T23:06:48.300Z,1.73
2022-10-04T23:09:15.130Z,2.17
2022-10-04T23:11:41.979Z,1.63
2022-10-04T23:14:08.560Z,1.73
2022-10-04T23:16:36.530Z,1.98
2022-10-04T23:19:11.778Z,1.58
2022-10-04T23:21:39.992Z,1.95
2022-10-04T23:24:12.731Z,1.40
2022-10-04T23:26:40.441Z,2.00
2022-10-04T23:29:23.821Z,1.90
2022-10-04T23:31:51.623Z,1.55
2022-10-04T23:34:38.713Z,2.13
2022-10-04T23:37:16.190Z,1.80
2022-10-04T23:39:44.382Z,2.10
2022-10-04T23:42:28.787Z,2.20
2022-10-04T23:44:57.691Z,1.55
2022-10-04T23:47:32.877Z,2.00
2022-10-04T23:49:59.685Z,1.52
2022-10-04T23:52:34.992Z,1.95
2022-10-04T23:55:02.790Z,1.80
2022-10-04T23:57:31.101Z,1.50
